createdAt,value
2023-04-10T00:00:00.000Z,0
2023-04-10T00:01:30.000Z,0
2023-04-10T00:02:48.000Z,0
2023-04-10T00:04:04.000Z,0
2023-04-10T00:05:35.000Z,0
2023-04-10T00:07:05.000Z,0
2023-04-10T00:08:36.000Z,0
2023-04-10T00:10:06.000Z,0
2023-04-10T00:11:37.000Z,0
2023-04-10T00:13:07.000Z,0
2023-04-10T00:14:38.000Z,0
2023-04-10T00:16:08.000Z,0
2023-04-10T00:17:39.000Z,0
2023-04-10T00:18:56.000Z,0
2023-04-10T00:20:13.000Z,0
2023-04-10T00:21:43.000Z,0
2023-04-10T00:23:14.000Z,0
2023-04-10T00:24:44.000Z,0
2023-04-10T00:26:15.000Z,0
2023-04-10T00:27:45.000Z,0
2023-04-10T00:29:16.000Z,0
2023-04-10T00:30:46.000Z,0
2023-04-10T00:32:17.000Z,0
2023-04-10T00:33:47.000Z,0
2023-04-10T00:35:04.000Z,0
2023-04-10T00:36:21.000Z,0
2023-04-10T00:37:52.000Z,0
2023-04-10T00:39:22.000Z,0
2023-04-10T00:40:53.000Z,0
2023-04-10T00:42:23.000Z,0
2023-04-10T00:43:54.000Z,0
2023-04-10T00:45:24.000Z,0
2023-04-10T00:46:55.000Z,0
2023-04-10T00:48:25.000Z,0
2023-04-10T00:49:56.000Z,0
2023-04-10T00:51:13.000Z,0
2023-04-10T00:52:30.000Z,0
2023-04-10T00:54:01.000Z,0
2023-04-10T00:55:31.000Z,0
2023-04-10T00:57:02.000Z,0
2023-04-10T00:58:32.000Z,0
2023-04-10T01:00:03.000Z,0
2023-04-10T01:01:33.000Z,0
2023-04-10T01:03:04.000Z,0
2023-04-10T01:04:34.000Z,0
2023-04-10T01:06:05.000Z,0
2023-04-10T01:07:22.000Z,0
2023-04-10T01:08:39.000Z,0
2023-04-10T01:10:09.000Z,0
2023-04-10T01:11:40.000Z,0
2023-04-10T01:13:10.000Z,0
2023-04-10T01:14:41.000Z,0
2023-04-10T01:16:11.000Z,0
2023-04-10T01:17:42.000Z,0
2023-04-10T01:19:12.000Z,0
2023-04-10T01:20:43.000Z,0
2023-04-10T01:22:13.000Z,0
2023-04-10T01:23:30.000Z,0
2023-04-10T01:24:47.000Z,0
2023-04-10T01:26:18.000Z,0
2023-04-10T01:27:48.000Z,0
2023-04-10T01:29:19.000Z,0
2023-04-10T01:30:49.000Z,0
2023-04-10T01:32:20.000Z,0
2023-04-10T01:33:50.000Z,0
2023-04-10T01:35:21.000Z,0
2023-04-10T01:36:51.000Z,0
2023-04-10T01:38:22.000Z,0
2023-04-10T01:39:39.000Z,0
2023-04-10T01:40:56.000Z,0
2023-04-10T01:42:26.000Z,0
2023-04-10T01:43:57.000Z,0
2023-04-10T01:45:27.000Z,0
2023-04-10T01:46:58.000Z,0
2023-04-10T01:48:28.000Z,0
2023-04-10T01:49:59.000Z,0
2023-04-10T01:51:29.000Z,0
2023-04-10T01:53:00.000Z,0
2023-04-10T01:54:30.000Z,0
2023-04-10T01:55:47.000Z,0
2023-04-10T01:57:04.000Z,0
2023-04-10T01:58:35.000Z,0
2023-04-10T02:00:05.000Z,0
2023-04-10T02:01:36.000Z,0
2023-04-10T02:03:06.000Z,0
2023-04-10T02:04:37.000Z,0
2023-04-10T02:06:07.000Z,0
2023-04-10T02:07:38.000Z,0
2023-04-10T02:09:08.000Z,0
2023-04-10T02:10:39.000Z,0
2023-04-10T02:11:56.000Z,0
2023-04-10T02:13:13.000Z,0
2023-04-10T02:14:43.000Z,0
2023-04-10T02:16:14.000Z,0
2023-04-10T02:17:44.000Z,0
2023-04-10T02:19:15.000Z,0
2023-04-10T02:20:45.000Z,0
2023-04-10T02:22:16.000Z,0
2023-04-10T02:23:46.000Z,0
2023-04-10T02:25:17.000Z,0
2023-04-10T02:26:47.000Z,0
2023-04-10T02:28:04.000Z,0
2023-04-10T02:29:22.000Z,0
2023-04-10T02:30:52.000Z,0
2023-04-10T02:32:23.000Z,0
2023-04-10T02:33:53.000Z,0
2023-04-10T02:35:24.000Z,0
2023-04-10T02:36:54.000Z,0
2023-04-10T02:38:25.000Z,0
2023-04-10T02:39:55.000Z,0
2023-04-10T02:41:26.000Z,0
2023-04-10T02:42:56.000Z,0
2023-04-10T02:44:13.000Z,0
2023-04-10T02:45:30.000Z,0
2023-04-10T02:47:01.000Z,0
2023-04-10T02:48:31.000Z,0
2023-04-10T02:50:02.000Z,0
2023-04-10T02:51:32.000Z,0
2023-04-10T02:53:03.000Z,0
2023-04-10T02:54:33.000Z,0
2023-04-10T02:56:04.000Z,0
2023-04-10T02:57:34.000Z,0
2023-04-10T02:59:05.000Z,0
2023-04-10T03:00:22.000Z,0
2023-04-10T03:01:39.000Z,0
2023-04-10T03:03:09.000Z,0
2023-04-10T03:04:40.000Z,0
2023-04-10T03:06:10.000Z,0
2023-04-10T03:07:41.000Z,0
2023-04-10T03:09:11.000Z,0
2023-04-10T03:10:42.000Z,0
2023-04-10T03:12:12.000Z,0
2023-04-10T03:13:43.000Z,0
2023-04-10T03:15:13.000Z,0
2023-04-10T03:17:47.000Z,0
2023-04-10T03:20:48.000Z,0
2023-04-10T03:22:19.000Z,0
2023-04-10T03:23:49.000Z,0
2023-04-10T03:25:20.000Z,0
2023-04-10T03:26:51.000Z,0
2023-04-10T03:28:21.000Z,0
2023-04-10T03:29:52.000Z,0
2023-04-10T03:31:22.000Z,0
2023-04-10T03:33:56.000Z,0
2023-04-10T03:35:27.000Z,0
2023-04-10T03:36:57.000Z,0
2023-04-10T03:38:28.000Z,0
2023-04-10T03:39:58.000Z,0
2023-04-10T03:41:29.000Z,0
2023-04-10T03:42:59.000Z,0
2023-04-10T03:44:30.000Z,0
2023-04-10T03:46:00.000Z,0
2023-04-10T03:47:31.000Z,0
2023-04-10T03:48:48.000Z,0
2023-04-10T03:50:05.000Z,0
2023-04-10T03:51:35.000Z,0
2023-04-10T03:53:06.000Z,0
2023-04-10T03:54:36.000Z,0
2023-04-10T03:56:07.000Z,0
2023-04-10T03:57:37.000Z,0
2023-04-10T03:59:08.000Z,0
2023-04-10T04:00:38.000Z,0
2023-04-10T04:02:09.000Z,0
2023-04-10T04:03:39.000Z,0
2023-04-10T04:04:56.000Z,0
2023-04-10T04:06:13.000Z,0
2023-04-10T04:07:44.000Z,0
2023-04-10T04:09:14.000Z,0
2023-04-10T04:10:45.000Z,0
2023-04-10T04:12:15.000Z,0
2023-04-10T04:13:46.000Z,0
2023-04-10T04:15:16.000Z,0
2023-04-10T04:16:47.000Z,0
2023-04-10T04:18:17.000Z,0
2023-04-10T04:19:48.000Z,0
2023-04-10T04:21:05.000Z,0
2023-04-10T04:22:22.000Z,0
2023-04-10T04:23:53.000Z,0
2023-04-10T04:25:23.000Z,0
2023-04-10T04:26:54.000Z,0
2023-04-10T04:28:24.000Z,0
2023-04-10T04:29:55.000Z,0
2023-04-10T04:31:25.000Z,0
2023-04-10T04:32:56.000Z,5
2023-04-10T04:34:26.000Z,5
2023-04-10T04:35:57.000Z,5
2023-04-10T04:37:13.000Z,11
2023-04-10T04:38:30.000Z,11
2023-04-10T04:40:01.000Z,11
2023-04-10T04:41:39.000Z,16
2023-04-10T04:43:10.000Z,22
2023-04-10T04:46:11.000Z,22
2023-04-10T04:47:42.000Z,28
2023-04-10T04:49:12.000Z,33
2023-04-10T04:50:43.000Z,39
2023-04-10T04:52:13.000Z,45
2023-04-10T04:53:30.000Z,50
2023-04-10T04:54:47.000Z,56
2023-04-10T04:56:18.000Z,61
2023-04-10T04:57:48.000Z,67
2023-04-10T04:59:19.000Z,78
2023-04-10T05:00:49.000Z,78
2023-04-10T05:02:20.000Z,90
2023-04-10T05:03:50.000Z,101
2023-04-10T05:05:21.000Z,118
2023-04-10T05:06:51.000Z,129
2023-04-10T05:08:22.000Z,135
2023-04-10T05:09:39.000Z,146
2023-04-10T05:10:56.000Z,157
2023-04-10T05:12:26.000Z,168
2023-04-10T05:13:57.000Z,180
2023-04-10T05:15:27.000Z,191
2023-04-10T05:16:58.000Z,202
2023-04-10T05:18:28.000Z,213
2023-04-10T05:19:59.000Z,219
2023-04-10T05:21:29.000Z,241
2023-04-10T05:23:00.000Z,253
2023-04-10T05:24:30.000Z,270
2023-04-10T05:25:47.000Z,281
2023-04-10T05:27:04.000Z,298
2023-04-10T05:30:05.000Z,337
2023-04-10T05:31:36.000Z,360
2023-04-10T05:33:06.000Z,382
2023-04-10T05:34:37.000Z,421
2023-04-10T05:36:07.000Z,495
2023-04-10T05:37:38.000Z,540
2023-04-10T05:39:08.000Z,562
2023-04-10T05:40:39.000Z,573
2023-04-10T05:41:56.000Z,556
2023-04-10T05:43:13.000Z,556
2023-04-10T05:44:44.000Z,573
2023-04-10T05:49:15.000Z,618
2023-04-10T05:50:46.000Z,658
2023-04-10T05:52:16.000Z,663
2023-04-10T05:55:17.000Z,776
2023-04-10T05:56:48.000Z,843
2023-04-10T05:58:05.000Z,877
2023-04-10T06:02:23.000Z,1018
2023-04-10T06:03:53.000Z,1096
2023-04-10T06:05:24.000Z,1102
2023-04-10T06:06:54.000Z,1141
2023-04-10T06:09:55.000Z,1170
2023-04-10T06:11:26.000Z,1260
2023-04-10T06:14:13.000Z,1361
2023-04-10T06:18:31.000Z,1006
2023-04-10T06:20:02.000Z,1170
2023-04-10T06:26:04.000Z,1400
2023-04-10T06:27:34.000Z,1490
2023-04-10T06:29:05.000Z,1434
2023-04-10T06:30:22.000Z,1372
2023-04-10T06:33:09.000Z,1316
2023-04-10T06:37:41.000Z,1141
2023-04-10T06:39:11.000Z,1198
2023-04-10T06:42:12.000Z,1209
2023-04-10T06:45:13.000Z,1333
2023-04-10T06:46:30.000Z,1456
2023-04-10T06:50:48.000Z,1563
2023-04-10T06:53:49.000Z,1648
2023-04-10T06:55:20.000Z,1513
2023-04-10T06:58:21.000Z,1794
2023-04-10T07:01:22.000Z,1546
2023-04-10T07:03:56.000Z,1923
2023-04-10T07:06:57.000Z,1805
2023-04-10T07:09:58.000Z,1980
2023-04-10T07:11:28.000Z,2081
2023-04-10T07:12:59.000Z,1963
2023-04-10T07:14:29.000Z,2092
2023-04-10T07:18:48.000Z,2576
2023-04-10T07:23:05.000Z,2503
2023-04-10T07:26:06.000Z,2424
2023-04-10T07:29:07.000Z,2576
2023-04-10T07:32:08.000Z,3003
2023-04-10T07:34:56.000Z,2902
2023-04-10T07:36:13.000Z,3150
2023-04-10T07:37:43.000Z,2970
2023-04-10T07:42:15.000Z,3223
2023-04-10T07:46:46.000Z,3082
2023-04-10T07:51:04.000Z,2857
2023-04-10T07:52:21.000Z,2930
2023-04-10T07:53:52.000Z,2953
2023-04-10T07:55:22.000Z,2666
2023-04-10T08:02:55.000Z,3515
2023-04-10T08:04:25.000Z,3189
2023-04-10T08:07:13.000Z,3121
2023-04-10T08:08:30.000Z,2756
2023-04-10T08:10:01.000Z,2728
2023-04-10T08:13:02.000Z,2643
2023-04-10T08:14:32.000Z,2356
2023-04-10T08:16:03.000Z,2334
2023-04-10T08:17:33.000Z,2323
2023-04-10T08:19:04.000Z,2244
2023-04-10T08:24:39.000Z,2131
2023-04-10T08:26:09.000Z,2452
2023-04-10T08:29:10.000Z,2722
2023-04-10T08:35:12.000Z,2919
2023-04-10T08:40:47.000Z,2829
2023-04-10T08:45:19.000Z,3054
2023-04-10T08:46:49.000Z,2806
2023-04-10T08:49:50.000Z,2790
2023-04-10T08:54:22.000Z,3622
2023-04-10T08:55:39.000Z,3510
2023-04-10T08:56:56.000Z,3543
2023-04-10T08:58:26.000Z,3566
2023-04-10T08:59:57.000Z,3588
2023-04-10T09:04:29.000Z,3853
2023-04-10T09:05:59.000Z,3751
2023-04-10T09:07:30.000Z,3577
2023-04-10T09:09:00.000Z,3532
2023-04-10T09:10:31.000Z,3172
2023-04-10T09:11:48.000Z,3228
2023-04-10T09:13:05.000Z,3256
2023-04-10T09:16:06.000Z,3538
2023-04-10T09:17:36.000Z,3622
2023-04-10T09:19:07.000Z,3690
2023-04-10T09:20:37.000Z,3712
2023-04-10T09:22:08.000Z,3650
2023-04-10T09:23:38.000Z,3706
2023-04-10T09:25:09.000Z,3521
2023-04-10T09:27:56.000Z,3785
2023-04-10T09:29:13.000Z,4089
2023-04-10T09:30:44.000Z,3898
2023-04-10T09:33:45.000Z,3898
2023-04-10T09:35:15.000Z,3825
2023-04-10T09:36:46.000Z,3858
2023-04-10T09:38:16.000Z,3718
2023-04-10T09:39:55.000Z,3526
2023-04-10T09:41:26.000Z,3375
2023-04-10T09:42:56.000Z,3318
2023-04-10T09:44:13.000Z,3223
2023-04-10T09:45:30.000Z,3228
2023-04-10T09:47:01.000Z,3195
2023-04-10T09:48:31.000Z,3178
2023-04-10T09:50:02.000Z,3144
2023-04-10T09:51:32.000Z,3172
2023-04-10T09:53:03.000Z,3166
2023-04-10T09:54:33.000Z,3082
2023-04-10T09:56:04.000Z,3290
2023-04-10T09:57:34.000Z,3195
2023-04-10T09:59:05.000Z,3116
2023-04-10T10:00:22.000Z,2913
2023-04-10T10:01:38.000Z,2823
2023-04-10T10:03:09.000Z,2778
2023-04-10T10:04:39.000Z,2818
2023-04-10T10:06:10.000Z,2784
2023-04-10T10:07:40.000Z,2818
2023-04-10T10:09:11.000Z,2868
2023-04-10T10:13:42.000Z,3403
2023-04-10T10:15:13.000Z,3808
2023-04-10T10:16:30.000Z,3476
2023-04-10T10:17:47.000Z,3549
2023-04-10T10:19:17.000Z,3571
2023-04-10T10:20:48.000Z,3594
2023-04-10T10:22:18.000Z,3341
2023-04-10T10:23:49.000Z,3251
2023-04-10T10:25:19.000Z,3178
2023-04-10T10:26:50.000Z,3363
2023-04-10T10:28:20.000Z,3650
2023-04-10T10:29:51.000Z,3735
2023-04-10T10:31:21.000Z,3571
2023-04-10T10:33:55.000Z,3673
2023-04-10T10:35:26.000Z,3701
2023-04-10T10:36:56.000Z,3605
2023-04-10T10:38:27.000Z,3931
2023-04-10T10:41:28.000Z,4320
2023-04-10T10:42:58.000Z,4218
2023-04-10T10:44:29.000Z,4331
2023-04-10T10:45:59.000Z,3796
2023-04-10T10:47:30.000Z,3555
2023-04-10T10:48:47.000Z,3729
2023-04-10T10:50:04.000Z,3521
2023-04-10T10:51:34.000Z,3526
2023-04-10T10:53:05.000Z,3740
2023-04-10T10:54:35.000Z,3864
2023-04-10T10:56:06.000Z,3993
2023-04-10T10:57:36.000Z,4190
2023-04-10T10:59:07.000Z,4449
2023-04-10T11:00:37.000Z,4511
2023-04-10T11:02:08.000Z,4280
2023-04-10T11:03:38.000Z,3774
2023-04-10T11:04:55.000Z,4072
2023-04-10T11:06:12.000Z,3825
2023-04-10T11:07:42.000Z,3735
2023-04-10T11:09:13.000Z,3954
2023-04-10T11:10:43.000Z,3813
2023-04-10T11:12:14.000Z,3549
2023-04-10T11:13:44.000Z,4078
2023-04-10T11:15:15.000Z,4201
2023-04-10T11:16:45.000Z,3768
2023-04-10T11:18:16.000Z,3622
2023-04-10T11:19:46.000Z,3825
2023-04-10T11:21:03.000Z,3853
2023-04-10T11:22:20.000Z,4128
2023-04-10T11:23:50.000Z,3465
2023-04-10T11:25:21.000Z,3588
2023-04-10T11:26:51.000Z,3510
2023-04-10T11:28:22.000Z,3532
2023-04-10T11:29:52.000Z,3650
2023-04-10T11:31:23.000Z,3881
2023-04-10T11:32:53.000Z,3690
2023-04-10T11:34:24.000Z,3667
2023-04-10T11:35:54.000Z,3504
2023-04-10T11:37:11.000Z,3313
2023-04-10T11:38:28.000Z,3088
2023-04-10T11:39:59.000Z,3060
2023-04-10T11:41:29.000Z,2930
2023-04-10T11:43:00.000Z,3172
2023-04-10T11:44:30.000Z,3436
2023-04-10T11:46:01.000Z,3442
2023-04-10T11:47:31.000Z,3397
2023-04-10T11:49:02.000Z,3448
2023-04-10T11:50:32.000Z,3605
2023-04-10T11:52:03.000Z,3791
2023-04-10T11:53:20.000Z,3746
2023-04-10T11:56:07.000Z,3436
2023-04-10T11:57:38.000Z,3234
2023-04-10T11:59:08.000Z,3206
2023-04-10T12:00:39.000Z,3026
2023-04-10T12:02:09.000Z,3054
2023-04-10T12:03:40.000Z,3015
2023-04-10T12:05:10.000Z,2970
2023-04-10T12:06:41.000Z,2998
2023-04-10T12:08:11.000Z,2908
2023-04-10T12:09:28.000Z,2677
2023-04-10T12:10:45.000Z,2671
2023-04-10T12:12:16.000Z,2514
2023-04-10T12:13:47.000Z,2486
2023-04-10T12:15:17.000Z,2418
2023-04-10T12:16:48.000Z,2430
2023-04-10T12:18:18.000Z,2463
2023-04-10T12:19:49.000Z,2508
2023-04-10T12:21:19.000Z,2525
2023-04-10T12:22:50.000Z,2581
2023-04-10T12:24:20.000Z,2576
2023-04-10T12:25:37.000Z,2525
2023-04-10T12:26:54.000Z,2452
2023-04-10T12:28:25.000Z,2418
2023-04-10T12:29:55.000Z,2486
2023-04-10T12:31:26.000Z,2525
2023-04-10T12:32:56.000Z,2587
2023-04-10T12:34:27.000Z,2716
2023-04-10T12:35:57.000Z,2733
2023-04-10T12:37:28.000Z,2745
2023-04-10T12:38:58.000Z,2722
2023-04-10T12:40:29.000Z,2671
2023-04-10T12:41:46.000Z,2722
2023-04-10T12:43:02.000Z,2851
2023-04-10T12:44:33.000Z,3003
2023-04-10T12:46:03.000Z,3127
2023-04-10T12:47:34.000Z,3133
2023-04-10T12:49:04.000Z,3228
2023-04-10T12:50:35.000Z,3015
2023-04-10T12:52:05.000Z,3048
2023-04-10T12:53:36.000Z,2958
2023-04-10T12:55:07.000Z,2986
2023-04-10T12:56:37.000Z,3116
2023-04-10T12:57:54.000Z,3251
2023-04-10T12:59:11.000Z,3425
2023-04-10T13:00:42.000Z,3678
2023-04-10T13:02:12.000Z,3701
2023-04-10T13:03:43.000Z,3841
2023-04-10T13:05:13.000Z,3740
2023-04-10T13:06:44.000Z,3808
2023-04-10T13:08:14.000Z,4325
2023-04-10T13:09:45.000Z,4173
2023-04-10T13:11:15.000Z,4089
2023-04-10T13:12:46.000Z,4224
2023-04-10T13:14:03.000Z,4089
2023-04-10T13:15:20.000Z,3825
2023-04-10T13:16:50.000Z,2581
2023-04-10T13:18:06.000Z,2761
2023-04-10T13:19:22.000Z,3369
2023-04-10T13:20:39.000Z,3425
2023-04-10T13:21:55.000Z,3819
2023-04-10T13:23:12.000Z,3341
2023-04-10T13:24:28.000Z,2896
2023-04-10T13:25:45.000Z,2323
2023-04-10T13:27:01.000Z,2058
2023-04-10T13:30:51.000Z,2255
2023-04-10T13:32:08.000Z,2289
2023-04-10T13:33:23.000Z,2283
2023-04-10T13:34:39.000Z,2306
2023-04-10T13:35:56.000Z,2311
2023-04-10T13:37:12.000Z,2300
2023-04-10T13:38:29.000Z,2385
2023-04-10T13:39:45.000Z,2480
2023-04-10T13:42:18.000Z,2475
2023-04-10T13:43:35.000Z,2514
2023-04-10T13:46:08.000Z,2520
2023-04-10T13:47:25.000Z,2396
2023-04-10T13:48:41.000Z,2345
2023-04-10T13:49:57.000Z,2317
2023-04-10T13:51:13.000Z,2283
2023-04-10T13:52:29.000Z,2154
2023-04-10T13:53:46.000Z,2047
2023-04-10T13:55:02.000Z,1985
2023-04-10T13:56:19.000Z,2025
2023-04-10T13:57:36.000Z,2047
2023-04-10T13:58:52.000Z,2025
2023-04-10T14:00:09.000Z,2030
2023-04-10T14:01:25.000Z,1963
2023-04-10T14:02:42.000Z,1828
2023-04-10T14:03:58.000Z,1794
2023-04-10T14:05:13.000Z,1873
2023-04-10T14:06:30.000Z,1957
2023-04-10T14:07:46.000Z,2008
2023-04-10T14:09:03.000Z,2002
2023-04-10T14:10:20.000Z,1974
2023-04-10T14:11:36.000Z,1918
2023-04-10T14:12:53.000Z,1800
2023-04-10T14:14:09.000Z,1732
2023-04-10T14:15:26.000Z,1715
2023-04-10T14:16:42.000Z,1715
2023-04-10T14:17:58.000Z,1816
2023-04-10T14:19:14.000Z,2143
2023-04-10T14:20:30.000Z,2722
2023-04-10T14:21:47.000Z,2728
2023-04-10T14:23:03.000Z,3324
2023-04-10T14:24:19.000Z,3256
2023-04-10T14:25:36.000Z,3470
2023-04-10T14:26:52.000Z,3616
2023-04-10T14:28:09.000Z,3515
2023-04-10T14:29:26.000Z,3633
2023-04-10T14:30:42.000Z,3611
2023-04-10T14:31:59.000Z,3060
2023-04-10T14:33:15.000Z,2711
2023-04-10T14:34:32.000Z,2362
2023-04-10T14:35:48.000Z,2182
2023-04-10T14:37:05.000Z,2053
2023-04-10T14:38:21.000Z,1968
2023-04-10T14:39:37.000Z,1901
2023-04-10T14:40:54.000Z,1873
2023-04-10T14:42:10.000Z,1811
2023-04-10T14:43:27.000Z,1721
2023-04-10T14:44:43.000Z,1659
2023-04-10T14:46:00.000Z,1614
2023-04-10T14:47:16.000Z,1575
2023-04-10T14:48:33.000Z,1563
2023-04-10T14:49:49.000Z,1535
2023-04-10T14:51:06.000Z,1501
2023-04-10T14:52:22.000Z,1479
2023-04-10T14:53:39.000Z,1451
2023-04-10T14:54:56.000Z,1411
2023-04-10T14:56:11.000Z,1383
2023-04-10T14:57:28.000Z,1383
2023-04-10T14:58:44.000Z,1406
2023-04-10T15:00:01.000Z,1411
2023-04-10T15:01:17.000Z,1383
2023-04-10T15:02:34.000Z,1333
2023-04-10T15:03:51.000Z,1299
2023-04-10T15:05:07.000Z,1282
2023-04-10T15:06:24.000Z,1248
2023-04-10T15:07:40.000Z,1231
2023-04-10T15:08:57.000Z,1231
2023-04-10T15:10:13.000Z,1215
2023-04-10T15:11:30.000Z,1198
2023-04-10T15:12:46.000Z,1170
2023-04-10T15:14:02.000Z,1153
2023-04-10T15:15:19.000Z,1141
2023-04-10T15:16:35.000Z,1170
2023-04-10T15:17:52.000Z,1220
2023-04-10T15:19:08.000Z,1282
2023-04-10T15:20:25.000Z,1299
2023-04-10T15:21:41.000Z,1350
2023-04-10T15:22:58.000Z,1355
2023-04-10T15:24:14.000Z,1316
2023-04-10T15:25:31.000Z,1276
2023-04-10T15:26:48.000Z,1237
2023-04-10T15:28:04.000Z,1209
2023-04-10T15:29:20.000Z,1170
2023-04-10T15:30:36.000Z,1096
2023-04-10T15:31:53.000Z,1040
2023-04-10T15:33:09.000Z,990
2023-04-10T15:34:26.000Z,973
2023-04-10T15:35:43.000Z,973
2023-04-10T15:36:59.000Z,961
2023-04-10T15:38:16.000Z,922
2023-04-10T15:39:32.000Z,871
2023-04-10T15:40:49.000Z,826
2023-04-10T15:42:05.000Z,781
2023-04-10T15:43:22.000Z,731
2023-04-10T15:44:38.000Z,697
2023-04-10T15:45:54.000Z,646
2023-04-10T15:47:11.000Z,607
2023-04-10T15:48:27.000Z,573
2023-04-10T15:49:44.000Z,551
2023-04-10T15:51:00.000Z,517
2023-04-10T15:52:17.000Z,495
2023-04-10T15:53:33.000Z,472
2023-04-10T15:54:50.000Z,461
2023-04-10T15:56:06.000Z,450
2023-04-10T15:57:23.000Z,438
2023-04-10T15:58:40.000Z,433
2023-04-10T15:59:56.000Z,427
2023-04-10T16:01:13.000Z,427
2023-04-10T16:02:29.000Z,427
2023-04-10T16:03:45.000Z,427
2023-04-10T16:05:01.000Z,421
2023-04-10T16:06:18.000Z,416
2023-04-10T16:07:35.000Z,416
2023-04-10T16:08:51.000Z,410
2023-04-10T16:10:08.000Z,405
2023-04-10T16:11:24.000Z,399
2023-04-10T16:12:41.000Z,399
2023-04-10T16:13:57.000Z,393
2023-04-10T16:15:14.000Z,388
2023-04-10T16:16:30.000Z,382
2023-04-10T16:17:47.000Z,376
2023-04-10T16:19:03.000Z,388
2023-04-10T16:20:19.000Z,388
2023-04-10T16:21:36.000Z,376
2023-04-10T16:22:52.000Z,371
2023-04-10T16:24:09.000Z,365
2023-04-10T16:25:25.000Z,365
2023-04-10T16:26:42.000Z,365
2023-04-10T16:27:58.000Z,360
2023-04-10T16:29:15.000Z,360
2023-04-10T16:30:31.000Z,354
2023-04-10T16:31:48.000Z,331
2023-04-10T16:33:05.000Z,315
2023-04-10T16:34:21.000Z,298
2023-04-10T16:35:38.000Z,275
2023-04-10T16:36:53.000Z,253
2023-04-10T16:38:10.000Z,241
2023-04-10T16:39:27.000Z,230
2023-04-10T16:40:43.000Z,219
2023-04-10T16:42:00.000Z,196
2023-04-10T16:43:16.000Z,180
2023-04-10T16:44:33.000Z,168
2023-04-10T16:45:49.000Z,163
2023-04-10T16:47:06.000Z,157
2023-04-10T16:48:22.000Z,146
2023-04-10T16:49:39.000Z,135
2023-04-10T16:50:55.000Z,129
2023-04-10T16:52:12.000Z,123
2023-04-10T16:53:28.000Z,118
2023-04-10T16:54:44.000Z,118
2023-04-10T16:56:01.000Z,118
2023-04-10T16:57:17.000Z,118
2023-04-10T16:58:34.000Z,118
2023-04-10T16:59:50.000Z,118
2023-04-10T17:01:07.000Z,123
2023-04-10T17:02:23.000Z,123
2023-04-10T17:03:40.000Z,123
2023-04-10T17:04:57.000Z,118
2023-04-10T17:06:13.000Z,112
2023-04-10T17:07:30.000Z,118
2023-04-10T17:08:46.000Z,129
2023-04-10T17:10:02.000Z,146
2023-04-10T17:11:19.000Z,151
2023-04-10T17:12:35.000Z,151
2023-04-10T17:13:52.000Z,151
2023-04-10T17:15:08.000Z,146
2023-04-10T17:16:25.000Z,140
2023-04-10T17:17:41.000Z,135
2023-04-10T17:18:58.000Z,123
2023-04-10T17:20:14.000Z,118
2023-04-10T17:21:31.000Z,101
2023-04-10T17:22:47.000Z,90
2023-04-10T17:24:04.000Z,78
2023-04-10T17:25:20.000Z,78
2023-04-10T17:26:36.000Z,78
2023-04-10T17:27:53.000Z,78
2023-04-10T17:29:09.000Z,78
2023-04-10T17:30:26.000Z,78
2023-04-10T17:31:42.000Z,84
2023-04-10T17:32:59.000Z,84
2023-04-10T17:34:15.000Z,84
2023-04-10T17:35:32.000Z,84
2023-04-10T17:36:49.000Z,84
2023-04-10T17:38:05.000Z,78
2023-04-10T17:39:22.000Z,73
2023-04-10T17:40:38.000Z,67
2023-04-10T17:41:55.000Z,61
2023-04-10T17:43:10.000Z,50
2023-04-10T17:44:27.000Z,45
2023-04-10T17:45:44.000Z,39
2023-04-10T17:47:00.000Z,39
2023-04-10T17:48:17.000Z,39
2023-04-10T17:49:33.000Z,39
2023-04-10T17:50:50.000Z,39
2023-04-10T17:52:06.000Z,39
2023-04-10T17:53:23.000Z,28
2023-04-10T17:54:39.000Z,22
2023-04-10T17:55:56.000Z,22
2023-04-10T17:57:12.000Z,16
2023-04-10T17:58:29.000Z,16
2023-04-10T17:59:45.000Z,22
2023-04-10T18:01:01.000Z,28
2023-04-10T18:02:18.000Z,28
2023-04-10T18:03:34.000Z,28
2023-04-10T18:04:51.000Z,22
2023-04-10T18:06:07.000Z,16
2023-04-10T18:07:24.000Z,16
2023-04-10T18:08:41.000Z,16
2023-04-10T18:09:57.000Z,16
2023-04-10T18:11:14.000Z,11
2023-04-10T18:12:30.000Z,11
2023-04-10T18:13:47.000Z,5
2023-04-10T18:15:03.000Z,5
2023-04-10T18:16:19.000Z,5
2023-04-10T18:17:36.000Z,0
2023-04-10T18:18:52.000Z,0
2023-04-10T18:20:09.000Z,0
2023-04-10T18:21:25.000Z,0
2023-04-10T18:22:42.000Z,0
2023-04-10T18:23:58.000Z,0
2023-04-10T18:25:15.000Z,0
2023-04-10T18:26:31.000Z,0
2023-04-10T18:27:48.000Z,0
2023-04-10T18:29:04.000Z,0
2023-04-10T18:30:21.000Z,0
2023-04-10T18:31:37.000Z,0
2023-04-10T18:32:53.000Z,0
2023-04-10T18:34:10.000Z,0
2023-04-10T18:35:26.000Z,0
2023-04-10T18:36:43.000Z,0
2023-04-10T18:37:59.000Z,0
2023-04-10T18:39:15.000Z,0
2023-04-10T18:40:32.000Z,0
2023-04-10T18:41:48.000Z,0
2023-04-10T18:43:05.000Z,0
2023-04-10T18:44:21.000Z,0
2023-04-10T18:45:38.000Z,0
2023-04-10T18:46:54.000Z,0
2023-04-10T18:48:11.000Z,0
2023-04-10T18:49:28.000Z,0
2023-04-10T18:50:44.000Z,0
2023-04-10T18:52:01.000Z,0
2023-04-10T18:53:17.000Z,0
2023-04-10T18:54:34.000Z,0
2023-04-10T18:55:50.000Z,0
2023-04-10T18:57:06.000Z,0
2023-04-10T18:58:23.000Z,0
2023-04-10T18:59:39.000Z,0
2023-04-10T19:00:56.000Z,0
2023-04-10T19:02:12.000Z,0
2023-04-10T19:03:29.000Z,0
2023-04-10T19:04:45.000Z,0
2023-04-10T19:06:02.000Z,0
2023-04-10T19:07:18.000Z,0
2023-04-10T19:08:35.000Z,0
2023-04-10T19:09:51.000Z,0
2023-04-10T19:11:08.000Z,0
2023-04-10T19:12:24.000Z,0
2023-04-10T19:13:40.000Z,0
2023-04-10T19:14:57.000Z,0
2023-04-10T19:16:13.000Z,0
2023-04-10T19:17:30.000Z,0
2023-04-10T19:18:46.000Z,0
2023-04-10T19:20:03.000Z,0
2023-04-10T19:21:20.000Z,0
2023-04-10T19:22:36.000Z,0
2023-04-10T19:23:53.000Z,0
2023-04-10T19:25:09.000Z,0
2023-04-10T19:26:26.000Z,0
2023-04-10T19:27:42.000Z,0
2023-04-10T19:28:58.000Z,0
2023-04-10T19:30:15.000Z,0
2023-04-10T19:31:31.000Z,0
2023-04-10T19:32:48.000Z,0
2023-04-10T19:34:04.000Z,0
2023-04-10T19:35:21.000Z,0
2023-04-10T19:36:37.000Z,0
2023-04-10T19:37:54.000Z,0
2023-04-10T19:39:10.000Z,0
2023-04-10T19:40:27.000Z,0
2023-04-10T19:41:43.000Z,0
2023-04-10T19:43:00.000Z,0
2023-04-10T19:44:16.000Z,0
2023-04-10T19:45:32.000Z,0
2023-04-10T19:46:49.000Z,0
2023-04-10T19:48:05.000Z,0
2023-04-10T19:49:22.000Z,0
2023-04-10T19:50:38.000Z,0
2023-04-10T19:51:55.000Z,0
2023-04-10T19:53:11.000Z,0
2023-04-10T19:54:28.000Z,0
2023-04-10T19:55:45.000Z,0
2023-04-10T19:57:01.000Z,0
2023-04-10T19:58:18.000Z,0
2023-04-10T19:59:34.000Z,0
2023-04-10T20:00:51.000Z,0
2023-04-10T20:02:07.000Z,0
2023-04-10T20:03:23.000Z,0
2023-04-10T20:04:40.000Z,0
2023-04-10T20:05:56.000Z,0
2023-04-10T20:07:13.000Z,0
2023-04-10T20:08:29.000Z,0
2023-04-10T20:09:46.000Z,0
2023-04-10T20:11:02.000Z,0
2023-04-10T20:12:19.000Z,0
2023-04-10T20:13:35.000Z,0
2023-04-10T20:14:52.000Z,0
2023-04-10T20:16:08.000Z,0
2023-04-10T20:17:25.000Z,0
2023-04-10T20:18:41.000Z,0
2023-04-10T20:19:57.000Z,0
2023-04-10T20:21:14.000Z,0
2023-04-10T20:22:30.000Z,0
2023-04-10T20:23:47.000Z,0
2023-04-10T20:25:03.000Z,0
2023-04-10T20:26:20.000Z,0
2023-04-10T20:27:37.000Z,0
2023-04-10T20:28:53.000Z,0
2023-04-10T20:30:10.000Z,0
2023-04-10T20:31:26.000Z,0
2023-04-10T20:32:43.000Z,0
2023-04-10T20:33:59.000Z,0
2023-04-10T20:35:16.000Z,0
2023-04-10T20:36:32.000Z,0
2023-04-10T20:37:48.000Z,0
2023-04-10T20:39:05.000Z,0
2023-04-10T20:40:21.000Z,0
2023-04-10T20:41:38.000Z,0
2023-04-10T20:42:54.000Z,0
2023-04-10T20:44:11.000Z,0
2023-04-10T20:45:27.000Z,0
2023-04-10T20:46:44.000Z,0
2023-04-10T20:48:00.000Z,0
2023-04-10T20:49:17.000Z,0
2023-04-10T20:50:33.000Z,0
2023-04-10T20:51:50.000Z,0
2023-04-10T20:53:07.000Z,0
2023-04-10T20:54:23.000Z,0
2023-04-10T20:55:40.000Z,0
2023-04-10T20:56:55.000Z,0
2023-04-10T20:58:12.000Z,0
2023-04-10T20:59:28.000Z,0
2023-04-10T21:00:45.000Z,0
2023-04-10T21:02:02.000Z,0
2023-04-10T21:03:18.000Z,0
2023-04-10T21:04:35.000Z,0
2023-04-10T21:05:51.000Z,0
2023-04-10T21:07:08.000Z,0
2023-04-10T21:08:24.000Z,0
2023-04-10T21:09:41.000Z,0
2023-04-10T21:10:57.000Z,0
2023-04-10T21:12:14.000Z,0
2023-04-10T21:13:30.000Z,0
2023-04-10T21:14:46.000Z,0